Time;durP1;ratioP1;P1;durP2;ratioP2;P2;SDS_P1;SDS_P2;PMS_P1;PMS_P2;Temp;Humidity;BMP_temperature;BMP_pressure;BME280_temperature;BME280_humidity;BME280_pressure;Samples;Min_cycle;Max_cycle;Signal;HPM_P1;HPM_P2
2023/05/28 00:00:58;;;;;;;;;;;;;;;22.51;48.99;101562.41;2296623;77;51555;-77
2023/05/28 00:04:00;;;;;;;;;;;;;;;22.52;49.01;101559.19;2248014;77;52064;-78
2023/05/28 00:07:01;;;;;;;;;;;;;;;22.53;48.96;101559.50;2296424;77;51613;-76
2023/05/28 00:10:03;;;;;;;;;;;;;;;22.51;48.94;101557.02;2296481;77;50762;-77
2023/05/28 00:13:04;;;;;;;;;;;;;;;22.52;48.98;101551.10;2272426;77;50391;-76
2023/05/28 00:16:06;;;;;;;;;;;;;;;22.51;48.99;101552.14;2246598;77;51771;-75
2023/05/28 00:19:09;;;;;;;;;;;;;;;22.50;48.96;101549.09;2287928;76;50672;-77
2023/05/28 00:22:10;;;;;;;;;;;;;;;22.50;48.97;101543.70;2366248;74;50618;-77
2023/05/28 00:25:13;;;;;;;;;;;;;;;22.51;48.94;101552.14;2328627;76;51501;-76
2023/05/28 00:28:14;;;;;;;;;;;;;;;22.50;48.94;101546.40;2330988;76;51764;-77
2023/05/28 00:31:16;;;;;;;;;;;;;;;22.50;48.96;101543.19;2262317;77;51389;-77
2023/05/28 00:34:18;;;;;;;;;;;;;;;22.49;48.91;101544.22;2287970;77;50693;-77
2023/05/28 00:37:19;;;;;;;;;;;;;;;22.51;48.91;101541.34;2262520;77;50670;-77
2023/05/28 00:40:21;;;;;;;;;;;;;;;22.49;48.92;101538.00;2237865;77;49386;-77
2023/05/28 00:43:23;;;;;;;;;;;;;;;22.50;48.91;101531.56;2262465;77;51665;-77
2023/05/28 00:46:25;;;;;;;;;;;;;;;22.49;48.89;101536.65;2263245;76;50351;-77
2023/05/28 00:49:26;;;;;;;;;;;;;;;22.48;48.89;101527.73;2317701;76;51454;-76
2023/05/28 00:52:28;;;;;;;;;;;;;;;22.49;48.88;101526.69;2328747;75;50740;-77
2023/05/28 00:55:30;;;;;;;;;;;;;;;22.48;48.86;101530.42;2328649;76;51441;-77
2023/05/28 00:58:34;;;;;;;;;;;;;;;22.49;48.87;101533.95;2328283;75;51588;-77
2023/05/28 01:01:35;;;;;;;;;;;;;;;22.49;48.84;101528.56;2328513;75;22426;-76
2023/05/28 01:04:37;;;;;;;;;;;;;;;22.49;48.87;101524.51;2327797;75;52706;-76
2023/05/28 01:07:38;;;;;;;;;;;;;;;22.48;48.81;101530.91;2366231;74;53262;-77
2023/05/28 01:10:40;;;;;;;;;;;;;;;22.48;48.86;101525.03;2328653;76;50492;-77
2023/05/28 01:13:41;;;;;;;;;;;;;;;22.47;48.84;101517.94;2328625;76;50452;-77
2023/05/28 01:16:44;;;;;;;;;;;;;;;22.47;48.82;101515.25;2290866;75;49596;-76
2023/05/28 01:19:47;;;;;;;;;;;;;;;22.48;48.83;101524.17;2305550;76;51609;-77
2023/05/28 01:22:50;;;;;;;;;;;;;;;22.46;48.82;101520.33;2296444;77;50760;-77
2023/05/28 01:25:52;;;;;;;;;;;;;;;22.46;48.81;101518.15;2296022;76;50742;-77
2023/05/28 01:28:54;;;;;;;;;;;;;;;22.46;48.82;101521.67;2295911;77;51619;-77
2023/05/28 01:31:56;;;;;;;;;;;;;;;22.46;48.83;101516.28;2296139;77;51599;-77
2023/05/28 01:34:57;;;;;;;;;;;;;;;22.46;48.83;101512.76;2271625;77;51540;-77
2023/05/28 01:38:00;;;;;;;;;;;;;;;22.47;48.81;101526.03;2295882;77;51468;-77
2023/05/28 01:41:02;;;;;;;;;;;;;;;22.45;48.81;101525.37;2271618;77;51299;-77
2023/05/28 01:44:03;;;;;;;;;;;;;;;22.46;48.80;101520.84;2296578;77;51558;-76
2023/05/28 01:47:05;;;;;;;;;;;;;;;22.45;48.77;101520.50;2291676;77;50774;-77
2023/05/28 01:50:07;;;;;;;;;;;;;;;22.45;48.80;101517.29;2306001;76;50448;-78
2023/05/28 01:53:09;;;;;;;;;;;;;;;22.46;48.79;101522.20;2247615;77;51327;-77
2023/05/28 01:56:10;;;;;;;;;;;;;;;22.46;48.75;101512.76;2271766;77;51489;-76
2023/05/28 01:59:12;;;;;;;;;;;;;;;22.46;48.75;101515.45;2296451;77;50374;-77
2023/05/28 02:02:13;;;;;;;;;;;;;;;22.46;48.74;101511.41;2271895;77;50304;-77
2023/05/28 02:05:15;;;;;;;;;;;;;;;22.46;48.76;101511.41;2247733;77;52356;-77
2023/05/28 02:08:17;;;;;;;;;;;;;;;22.46;48.72;101514.11;2296189;77;51567;-77
2023/05/28 02:11:18;;;;;;;;;;;;;;;22.45;48.75;101497.58;2296561;77;51455;-78
2023/05/28 02:14:20;;;;;;;;;;;;;;;22.46;48.72;101501.97;2296591;77;51506;-78
2023/05/28 02:17:21;;;;;;;;;;;;;;;22.45;48.74;101503.80;2243056;77;51083;-78
2023/05/28 02:20:23;;;;;;;;;;;;;;;22.44;48.72;101499.45;2271732;77;51514;-78
2023/05/28 02:23:25;;;;;;;;;;;;;;;22.45;48.73;101497.58;2281594;78;50312;-77
2023/05/28 02:26:26;;;;;;;;;;;;;;;22.45;48.74;101497.58;2281026;78;51471;-78
2023/05/28 02:29:28;;;;;;;;;;;;;;;22.45;48.75;101497.58;2281142;78;50726;-78
2023/05/28 02:32:30;;;;;;;;;;;;;;;22.44;48.72;101499.97;2281605;78;51565;-78
2023/05/28 02:35:32;;;;;;;;;;;;;;;22.44;48.76;101501.31;2257761;78;51619;-78
2023/05/28 02:38:33;;;;;;;;;;;;;;;22.43;48.75;101495.09;2281614;77;50260;-78
2023/05/28 02:41:35;;;;;;;;;;;;;;;22.44;48.72;101499.97;2232817;78;51098;-77
2023/05/28 02:44:36;;;;;;;;;;;;;;;22.44;48.75;101499.97;2281806;78;50569;-78
2023/05/28 02:47:39;;;;;;;;;;;;;;;22.43;48.74;101499.14;2286824;76;50658;-78
2023/05/28 02:50:40;;;;;;;;;;;;;;;22.43;48.71;101498.27;2308328;76;50354;-78
2023/05/28 02:53:42;;;;;;;;;;;;;;;22.43;48.67;101495.58;2246731;77;51294;-78
2023/05/28 02:56:43;;;;;;;;;;;;;;;22.43;48.69;101503.18;2271759;77;50645;-78
2023/05/28 02:59:45;;;;;;;;;;;;;;;22.43;48.74;101507.71;2296477;77;50850;-78
2023/05/28 03:02:47;;;;;;;;;;;;;;;22.43;48.71;101505.88;2296187;77;51519;-79
2023/05/28 03:05:49;;;;;;;;;;;;;;;22.43;48.72;101509.06;2272433;77;52659;-78
2023/05/28 03:08:50;;;;;;;;;;;;;;;22.43;48.72;101510.41;2296354;77;50710;-78
2023/05/28 03:11:52;;;;;;;;;;;;;;;22.43;48.67;101506.36;2296530;77;51528;-78
2023/05/28 03:14:53;;;;;;;;;;;;;;;22.44;48.66;101508.89;2296574;77;51477;-78
2023/05/28 03:17:55;;;;;;;;;;;;;;;22.43;48.72;101503.67;2262301;76;52389;-78
2023/05/28 03:20:57;;;;;;;;;;;;;;;22.42;48.69;101506.05;2305440;76;50844;-78
2023/05/28 03:23:58;;;;;;;;;;;;;;;22.43;48.66;101502.32;2296703;77;51450;-78
2023/05/28 03:27:00;;;;;;;;;;;;;;;22.42;48.67;101499.31;2296435;77;52328;-79
2023/05/28 03:30:03;;;;;;;;;;;;;;;22.42;48.69;101502.00;2272548;77;51489;-78
2023/05/28 03:33:04;;;;;;;;;;;;;;;22.41;48.68;101496.30;2272365;77;50433;-78
2023/05/28 03:36:06;;;;;;;;;;;;;;;22.42;48.66;101492.05;2296700;77;50695;-78
2023/05/28 03:39:11;;;;;;;;;;;;;;;22.42;48.70;101492.05;2296479;77;51526;-79
2023/05/28 03:42:13;;;;;;;;;;;;;;;22.43;48.63;101496.92;2272374;77;52484;-78
2023/05/28 03:45:15;;;;;;;;;;;;;;;22.42;48.65;101488.52;2296716;77;50679;-78
2023/05/28 03:48:16;;;;;;;;;;;;;;;22.42;48.64;101492.05;2300038;75;51649;-78
2023/05/28 03:51:18;;;;;;;;;;;;;;;22.42;48.64;101488.00;2301477;76;51561;-78
2023/05/28 03:54:19;;;;;;;;;;;;;;;22.43;48.64;101488.84;2272443;77;50732;-78
2023/05/28 03:57:21;;;;;;;;;;;;;;;22.43;48.66;101490.19;2272146;77;51466;-78
2023/05/28 04:00:23;;;;;;;;;;;;;;;22.42;48.65;101496.09;2296810;77;51568;-78
2023/05/28 04:03:24;;;;;;;;;;;;;;;22.44;48.63;101497.27;2272369;77;51518;-79
2023/05/28 04:06:26;;;;;;;;;;;;;;;22.43;48.65;101488.84;2271978;77;52464;-78
2023/05/28 04:09:27;;;;;;;;;;;;;;;22.43;48.64;101488.34;2296575;77;50789;-78
2023/05/28 04:12:29;;;;;;;;;;;;;;;22.43;48.72;101484.30;2296769;77;50306;-78
2023/05/28 04:15:31;;;;;;;;;;;;;;;22.44;48.66;101490.53;2272526;77;50227;-78
2023/05/28 04:18:33;;;;;;;;;;;;;;;22.44;48.71;101491.36;2309853;75;50330;-78
2023/05/28 04:21:35;;;;;;;;;;;;;;;22.44;48.73;101491.88;2281245;76;51776;-78
2023/05/28 04:24:36;;;;;;;;;;;;;;;22.43;48.75;101484.30;2344724;74;50463;-78
2023/05/28 04:27:40;;;;;;;;;;;;;;;22.44;48.75;101490.53;2380133;74;50640;-78
2023/05/28 04:30:41;;;;;;;;;;;;;;;22.45;48.73;101489.48;2380275;74;22764;-78
2023/05/28 04:33:46;;;;;;;;;;;;;;;22.44;48.73;101485.13;2333839;75;52380;-78
2023/05/28 04:36:48;;;;;;;;;;;;;;;22.45;48.71;101487.63;2345105;74;22315;-79
2023/05/28 04:39:49;;;;;;;;;;;;;;;22.46;48.68;101496.58;2347429;76;51628;-77
2023/05/28 04:42:55;;;;;;;;;;;;;;;22.47;48.65;101497.72;2347463;76;50739;-78
2023/05/28 04:45:54;;;;;;;;;;;;;;;22.46;48.70;101493.88;2379367;74;23017;-78
2023/05/28 04:48:56;;;;;;;;;;;;;;;22.52;48.71;101495.81;2304921;75;51232;-78
2023/05/28 04:51:57;;;;;;;;;;;;;;;22.58;48.57;101495.05;2297439;77;50273;-78
2023/05/28 04:54:59;;;;;;;;;;;;;;;22.61;48.36;101492.82;2300500;77;50287;-79
2023/05/28 04:58:00;;;;;;;;;;;;;;;22.67;48.12;101494.44;2250868;77;52412;-78
2023/05/28 05:01:02;;;;;;;;;;;;;;;22.72;48.01;101498.75;2273599;77;50299;-79
2023/05/28 05:04:04;;;;;;;;;;;;;;;22.76;47.84;101495.49;2298784;77;49926;-78
2023/05/28 05:07:05;;;;;;;;;;;;;;;22.83;47.75;101496.38;2274159;77;52205;-78
2023/05/28 05:10:08;;;;;;;;;;;;;;;22.87;47.60;101496.02;2267721;77;50768;-78
2023/05/28 05:13:09;;;;;;;;;;;;;;;22.91;47.54;101491.89;2296698;77;50839;-78
2023/05/28 05:16:12;;;;;;;;;;;;;;;22.94;47.52;101496.41;2272048;77;51447;-78
2023/05/28 05:19:14;;;;;;;;;;;;;;;22.98;47.47;101492.84;2323513;76;50347;-78
2023/05/28 05:22:15;;;;;;;;;;;;;;;23.01;47.53;101494.63;2339188;76;51238;-78
2023/05/28 05:25:17;;;;;;;;;;;;;;;23.05;47.48;101496.45;2366883;74;51624;-79
2023/05/28 05:28:19;;;;;;;;;;;;;;;23.08;47.45;101496.05;2329045;75;50762;-78
2023/05/28 05:31:20;;;;;;;;;;;;;;;23.11;47.41;101491.62;2329160;75;51787;-78
2023/05/28 05:34:22;;;;;;;;;;;;;;;23.16;47.34;101488.34;2328115;75;52344;-78
2023/05/28 05:37:23;;;;;;;;;;;;;;;23.17;47.30;101481.41;2366638;74;51450;-79
2023/05/28 05:40:25;;;;;;;;;;;;;;;23.22;47.21;101483.51;2328991;76;51543;-78
2023/05/28 05:43:27;;;;;;;;;;;;;;;23.25;47.13;101484.50;2366735;74;51559;-78
2023/05/28 05:46:28;;;;;;;;;;;;;;;23.26;47.15;101491.03;2359509;74;51504;-76
2023/05/28 05:49:30;;;;;;;;;;;;;;;23.30;47.11;101486.59;2319096;75;52186;-77
2023/05/28 05:52:31;;;;;;;;;;;;;;;23.34;47.02;101491.94;2296475;77;50297;-77
2023/05/28 05:55:33;;;;;;;;;;;;;;;23.36;47.03;101492.06;2296581;77;51456;-77
2023/05/28 05:58:35;;;;;;;;;;;;;;;23.42;46.97;101494.50;2246539;77;52680;-77
2023/05/28 06:01:36;;;;;;;;;;;;;;;23.45;46.85;101491.39;2296373;77;51602;-77
2023/05/28 06:04:38;;;;;;;;;;;;;;;23.50;46.78;101497.05;2272404;77;51546;-79
2023/05/28 06:07:40;;;;;;;;;;;;;;;23.52;46.79;101493.64;2296258;77;51477;-76
2023/05/28 06:10:41;;;;;;;;;;;;;;;23.56;46.72;101488.19;2272041;77;52354;-76
2023/05/28 06:13:43;;;;;;;;;;;;;;;23.60;46.69;101490.80;2296462;77;51514;-76
2023/05/28 06:16:45;;;;;;;;;;;;;;;23.65;46.57;101484.81;2293954;77;50752;-76
2023/05/28 06:19:49;;;;;;;;;;;;;;;23.67;46.49;101487.63;2304650;76;50771;-77
2023/05/28 06:22:50;;;;;;;;;;;;;;;23.68;46.50;101489.29;2273169;77;22322;-77
2023/05/28 06:25:52;;;;;;;;;;;;;;;23.72;46.41;101496.54;2296482;77;50315;-78
2023/05/28 06:28:54;;;;;;;;;;;;;;;23.75;46.39;101493.95;2272304;77;50360;-78
2023/05/28 06:31:55;;;;;;;;;;;;;;;23.76;46.37;101492.39;2296455;77;51558;-78
2023/05/28 06:34:57;;;;;;;;;;;;;;;23.79;46.36;101490.67;2247834;77;50690;-77
2023/05/28 06:37:59;;;;;;;;;;;;;;;23.84;46.31;101492.76;2296342;77;51439;-77
2023/05/28 06:41:00;;;;;;;;;;;;;;;23.85;46.24;101494.45;2296498;77;50835;-78
2023/05/28 06:44:02;;;;;;;;;;;;;;;23.87;46.21;101491.03;2272498;77;51584;-78
2023/05/28 06:47:03;;;;;;;;;;;;;;;23.88;46.16;101491.34;2243628;78;52421;-77
2023/05/28 06:50:05;;;;;;;;;;;;;;;23.90;46.16;101493.34;2271977;76;50671;-78
2023/05/28 06:53:07;;;;;;;;;;;;;;;23.92;46.09;101489.92;2281631;78;50559;-77
2023/05/28 06:56:09;;;;;;;;;;;;;;;23.93;46.05;101494.28;2257869;78;50517;-77
2023/05/28 06:59:11;;;;;;;;;;;;;;;23.94;46.04;101489.19;2265827;77;50427;-77
2023/05/28 07:02:12;;;;;;;;;;;;;;;23.97;45.98;101490.16;2288782;77;50277;-78
2023/05/28 07:05:14;;;;;;;;;;;;;;;23.97;45.97;101497.41;2289297;77;50677;-77
2023/05/28 07:08:16;;;;;;;;;;;;;;;24.00;45.92;101494.34;2262764;77;51601;-77
2023/05/28 07:11:17;;;;;;;;;;;;;;;23.98;45.88;101493.70;2238158;77;51825;-77
2023/05/28 07:14:19;;;;;;;;;;;;;;;24.03;45.89;101493.94;2288904;77;50320;-77
2023/05/28 07:17:21;;;;;;;;;;;;;;;24.01;45.81;101487.36;2276785;76;51541;-77
2023/05/28 07:20:22;;;;;;;;;;;;;;;24.03;45.78;101485.83;2321111;75;52648;-78
2023/05/28 07:23:24;;;;;;;;;;;;;;;24.02;45.84;101484.14;2302061;75;52430;-79
2023/05/28 07:26:26;;;;;;;;;;;;;;;24.04;45.80;101484.78;2356438;74;51485;-78
2023/05/28 07:29:27;;;;;;;;;;;;;;;24.03;45.88;101478.55;2328971;74;51495;-76
2023/05/28 07:32:29;;;;;;;;;;;;;;;24.02;45.83;101474.19;2328755;75;52381;-77
2023/05/28 07:35:31;;;;;;;;;;;;;;;24.04;45.84;101474.80;2328427;74;52395;-77
2023/05/28 07:38:32;;;;;;;;;;;;;;;24.02;45.81;101480.94;2328713;74;51444;-80
2023/05/28 07:41:34;;;;;;;;;;;;;;;24.03;45.83;101486.66;2356024;74;50709;-78
2023/05/28 07:44:36;;;;;;;;;;;;;;;24.03;45.78;101486.66;2356164;74;51510;-79
2023/05/28 07:47:37;;;;;;;;;;;;;;;24.03;45.79;101483.95;2313338;76;50177;-78
2023/05/28 07:50:40;;;;;;;;;;;;;;;24.04;45.77;101483.43;2355943;74;50660;-76
2023/05/28 07:53:43;;;;;;;;;;;;;;;24.01;45.84;101482.48;2355439;74;51552;-77
2023/05/28 07:56:44;;;;;;;;;;;;;;;24.01;45.87;101490.07;2327836;74;51588;-77
2023/05/28 07:59:46;;;;;;;;;;;;;;;24.01;45.84;101486.02;2355789;74;51499;-78
2023/05/28 08:02:48;;;;;;;;;;;;;;;23.99;45.87;101484.02;2328522;74;50727;-77
2023/05/28 08:05:50;;;;;;;;;;;;;;;23.98;45.91;101474.25;2328569;76;50754;-78
2023/05/28 08:08:52;;;;;;;;;;;;;;;23.98;45.85;101478.30;2328225;75;50106;-78
2023/05/28 08:11:53;;;;;;;;;;;;;;;23.98;45.85;101467.49;2355677;74;51269;-78
2023/05/28 08:14:55;;;;;;;;;;;;;;;23.97;45.88;101473.95;2328573;74;50773;-76
2023/05/28 08:17:56;;;;;;;;;;;;;;;23.95;45.92;101471.95;2344630;74;50659;-78
2023/05/28 08:20:58;;;;;;;;;;;;;;;23.96;45.87;101462.80;2300758;74;51523;-77
2023/05/28 08:23:59;;;;;;;;;;;;;;;23.95;45.95;101465.20;2328826;76;52934;-77
2023/05/28 08:27:01;;;;;;;;;;;;;;;23.91;45.96;101455.80;2328548;76;52192;-76
2023/05/28 08:30:03;;;;;;;;;;;;;;;23.94;45.81;101466.73;2328801;76;52141;-76
2023/05/28 08:33:05;;;;;;;;;;;;;;;23.94;45.77;101458.62;2328662;76;51535;-76
2023/05/28 08:36:07;;;;;;;;;;;;;;;23.92;45.79;101466.95;2327902;76;52378;-78
2023/05/28 08:39:09;;;;;;;;;;;;;;;23.90;45.92;101459.55;2355535;74;51514;-76
2023/05/28 08:42:11;;;;;;;;;;;;;;;23.89;45.86;101460.56;2328111;75;50348;-76
2023/05/28 08:45:13;;;;;;;;;;;;;;;23.87;45.98;101459.43;2328064;76;50436;-75
2023/05/28 08:48:16;;;;;;;;;;;;;;;23.86;46.04;101466.38;2312366;74;50793;-77
2023/05/28 08:51:17;;;;;;;;;;;;;;;23.86;45.83;101456.91;2329185;74;50697;-77
2023/05/28 08:54:20;;;;;;;;;;;;;;;23.85;45.96;101453.91;2328887;74;51561;-77
2023/05/28 08:57:21;;;;;;;;;;;;;;;23.83;45.98;101451.39;2328580;76;50452;-77
2023/05/28 09:00:23;;;;;;;;;;;;;;;23.82;46.00;101448.91;2327949;74;51742;-77
2023/05/28 09:03:24;;;;;;;;;;;;;;;23.80;46.06;101447.73;2328811;76;50244;-76
2023/05/28 09:06:26;;;;;;;;;;;;;;;23.80;46.07;101442.86;2356012;74;50386;-76
2023/05/28 09:09:28;;;;;;;;;;;;;;;23.80;46.01;101445.03;2328938;76;50719;-77
2023/05/28 09:12:30;;;;;;;;;;;;;;;23.79;46.00;101441.17;2328070;75;49689;-77
2023/05/28 09:15:31;;;;;;;;;;;;;;;23.77;46.02;101436.50;2356179;74;51562;-77
2023/05/28 09:18:33;;;;;;;;;;;;;;;23.79;45.84;101440.67;2306875;76;50245;-76
2023/05/28 09:21:36;;;;;;;;;;;;;;;23.79;45.85;101442.52;2288829;77;52342;-77
2023/05/28 09:24:38;;;;;;;;;;;;;;;23.77;45.65;101433.80;2263055;77;49158;-78
2023/05/28 09:27:41;;;;;;;;;;;;;;;23.77;45.76;101440.55;2290508;77;50809;-77
2023/05/28 09:30:43;;;;;;;;;;;;;;;23.74;45.85;101430.12;2263406;77;50357;-78
2023/05/28 09:33:45;;;;;;;;;;;;;;;23.72;45.89;101421.37;2262825;77;50709;-76
2023/05/28 09:36:46;;;;;;;;;;;;;;;23.68;45.90;101420.39;2262872;77;51762;-77
2023/05/28 09:39:48;;;;;;;;;;;;;;;23.68;45.75;101420.91;2289432;77;51502;-78
2023/05/28 09:42:49;;;;;;;;;;;;;;;23.66;45.83;101410.32;2288993;77;51442;-80
2023/05/28 09:45:51;;;;;;;;;;;;;;;23.65;45.88;101408.63;2262964;77;50329;-80
2023/05/28 09:48:53;;;;;;;;;;;;;;;23.63;45.92;101405.28;2241184;77;52588;-78
2023/05/28 09:51:54;;;;;;;;;;;;;;;23.60;45.98;101405.69;2289763;77;50301;-77
2023/05/28 09:54:58;;;;;;;;;;;;;;;23.60;46.04;101402.98;2288985;77;50305;-76
2023/05/28 09:58:02;;;;;;;;;;;;;;;23.59;46.08;101405.91;2263501;76;22469;-77
2023/05/28 10:01:05;;;;;;;;;;;;;;;23.57;46.12;101402.56;2238103;77;51777;-77
2023/05/28 10:04:08;;;;;;;;;;;;;;;23.56;46.10;101404.44;2288730;77;51543;-77
2023/05/28 10:07:10;;;;;;;;;;;;;;;23.56;46.01;101399.55;2288005;76;51532;-77
2023/05/28 10:10:12;;;;;;;;;;;;;;;23.55;46.04;101403.27;2288909;77;51451;-78
2023/05/28 10:13:14;;;;;;;;;;;;;;;23.54;46.07;101399.73;2262770;77;51262;-78
2023/05/28 10:16:15;;;;;;;;;;;;;;;23.52;46.18;101401.80;2288602;77;50253;-75
2023/05/28 10:19:17;;;;;;;;;;;;;;;23.53;46.14;101398.09;2289195;76;50227;-77
2023/05/28 10:22:18;;;;;;;;;;;;;;;23.51;46.23;101389.86;2263145;77;50320;-78
2023/05/28 10:25:20;;;;;;;;;;;;;;;23.50;46.26;101389.52;2263018;77;51241;-77
2023/05/28 10:28:22;;;;;;;;;;;;;;;23.50;46.15;101390.34;2288554;77;50775;-78
2023/05/28 10:31:23;;;;;;;;;;;;;;;23.47;46.21;101386.70;2288758;77;50251;-77
2023/05/28 10:34:26;;;;;;;;;;;;;;;23.45;46.18;101382.00;2262673;77;51525;-77
2023/05/28 10:37:28;;;;;;;;;;;;;;;23.44;46.17;101383.88;2262248;77;52426;-78
2023/05/28 10:40:30;;;;;;;;;;;;;;;23.43;46.24;101388.97;2288782;77;50274;-77
2023/05/28 10:43:41;;;;;;;;;;;;;;;23.42;46.18;101378.36;2289005;77;50326;-77
2023/05/28 10:46:43;;;;;;;;;;;;;;;23.42;46.12;101379.70;2288874;77;51583;-78
2023/05/28 10:50:03;;;;;;;;;;;;;;;23.41;46.17;101375.34;2295331;76;51548;-77
2023/05/28 10:53:06;;;;;;;;;;;;;;;23.41;46.21;101376.17;2328258;74;50377;-78
2023/05/28 10:56:08;;;;;;;;;;;;;;;23.39;46.17;101378.75;2355427;74;52208;-77
2023/05/28 10:59:15;;;;;;;;;;;;;;;23.39;46.07;101376.05;2328230;75;50316;-78
2023/05/28 11:02:25;;;;;;;;;;;;;;;23.40;46.00;101381.77;2328125;75;50110;-77
2023/05/28 11:05:27;;;;;;;;;;;;;;;23.37;46.12;101391.61;2328105;75;51579;-77
2023/05/28 11:08:28;;;;;;;;;;;;;;;23.33;46.24;101389.84;2355389;74;51472;-78
2023/05/28 11:11:30;;;;;;;;;;;;;;;23.33;46.34;101390.36;2328392;74;51543;-77
2023/05/28 11:14:35;;;;;;;;;;;;;;;23.32;46.32;101387.32;2355466;74;49244;-77
2023/05/28 11:17:38;;;;;;;;;;;;;;;23.31;46.37;101377.56;2308639;74;50307;-78
2023/05/28 11:20:39;;;;;;;;;;;;;;;23.33;46.38;101375.50;2298940;76;50839;-78
2023/05/28 11:23:41;;;;;;;;;;;;;;;23.34;46.36;101381.22;2262826;77;50764;-78
2023/05/28 11:26:42;;;;;;;;;;;;;;;23.31;46.43;101378.91;2237886;77;51040;-77
2023/05/28 11:29:44;;;;;;;;;;;;;;;23.31;46.40;101372.16;2288757;76;51496;-76
2023/05/28 11:32:46;;;;;;;;;;;;;;;23.31;46.42;101374.34;2262693;77;51586;-78
2023/05/28 11:35:49;;;;;;;;;;;;;;;23.30;46.45;101370.47;2288711;77;50440;-77
2023/05/28 11:39:03;;;;;;;;;;;;;;;23.29;46.40;101358.02;2257609;77;51450;-78
2023/05/28 11:42:07;;;;;;;;;;;;;;;23.30;46.45;101369.13;2262902;77;51471;-77
2023/05/28 11:45:09;;;;;;;;;;;;;;;23.27;46.50;101359.55;2288620;77;51813;-77
2023/05/28 11:48:12;;;;;;;;;;;;;;;23.28;46.48;101356.36;2298457;76;50339;-77
2023/05/28 11:51:14;;;;;;;;;;;;;;;23.28;46.52;101359.06;2292040;76;50693;-76
2023/05/28 11:54:15;;;;;;;;;;;;;;;23.25;46.51;101353.54;2262885;77;50343;-78
2023/05/28 11:57:21;;;;;;;;;;;;;;;23.29;46.48;101355.31;2288381;77;50656;-77
2023/05/28 12:00:23;;;;;;;;;;;;;;;23.28;46.44;101346.91;2288773;76;22451;-77
2023/05/28 12:03:28;;;;;;;;;;;;;;;23.25;46.52;101347.61;2261653;77;51766;-77
2023/05/28 12:06:31;;;;;;;;;;;;;;;23.26;46.50;101341.69;2288593;77;50757;-77
2023/05/28 12:09:33;;;;;;;;;;;;;;;23.28;46.57;101337.46;2288426;76;51564;-77
2023/05/28 12:12:35;;;;;;;;;;;;;;;23.24;46.59;101336.48;2289005;77;51530;-77
2023/05/28 12:15:37;;;;;;;;;;;;;;;23.26;46.56;101329.55;2238792;77;52222;-77
2023/05/28 12:18:42;;;;;;;;;;;;;;;23.23;46.56;101328.07;2274924;76;50678;-77
2023/05/28 12:21:44;;;;;;;;;;;;;;;23.22;46.59;101323.72;2288565;77;51461;-77
2023/05/28 12:24:50;;;;;;;;;;;;;;;23.22;46.60;101322.37;2288520;77;50394;-76
2023/05/28 12:27:52;;;;;;;;;;;;;;;23.22;46.58;101308.86;2237754;77;52573;-77
2023/05/28 12:30:55;;;;;;;;;;;;;;;23.21;46.67;101326.59;2262566;77;50275;-76
2023/05/28 12:33:56;;;;;;;;;;;;;;;23.23;46.55;101317.27;2288610;77;50687;-77
2023/05/28 12:36:58;;;;;;;;;;;;;;;23.21;46.62;101303.66;2262437;77;50686;-76
2023/05/28 12:40:00;;;;;;;;;;;;;;;23.21;46.58;101302.30;2288709;77;50822;-77
2023/05/28 12:43:01;;;;;;;;;;;;;;;23.22;46.55;101298.06;2262826;77;50466;-76
2023/05/28 12:46:03;;;;;;;;;;;;;;;23.21;46.58;101297.73;2289170;76;50722;-77
2023/05/28 12:49:04;;;;;;;;;;;;;;;23.23;46.59;101301.59;2281997;76;50349;-76
2023/05/28 12:52:06;;;;;;;;;;;;;;;23.22;46.58;101303.47;2327958;75;52114;-77
2023/05/28 12:55:09;;;;;;;;;;;;;;;23.20;46.59;101292.02;2355433;75;50682;-77
2023/05/28 12:58:11;;;;;;;;;;;;;;;23.22;46.60;101291.81;2328025;74;50726;-77
2023/05/28 13:01:13;;;;;;;;;;;;;;;23.22;46.61;101292.66;2355396;75;50681;-77
2023/05/28 13:04:15;;;;;;;;;;;;;;;23.17;46.89;101292.42;2354740;75;51474;-77
2023/05/28 13:07:16;;;;;;;;;;;;;;;23.18;46.96;101296.78;2355118;74;50192;-77
2023/05/28 13:10:18;;;;;;;;;;;;;;;23.17;46.97;101287.03;2328313;74;50425;-77
2023/05/28 13:13:20;;;;;;;;;;;;;;;23.17;47.00;101293.77;2328515;74;50249;-75
2023/05/28 13:16:21;;;;;;;;;;;;;;;23.18;47.00;101295.43;2321710;76;51848;-78
2023/05/28 13:19:23;;;;;;;;;;;;;;;23.19;47.06;101285.46;2288726;76;50341;-76
2023/05/28 13:22:25;;;;;;;;;;;;;;;23.18;47.07;101292.73;2262631;77;50365;-76
2023/05/28 13:25:26;;;;;;;;;;;;;;;23.18;47.07;101283.28;2288629;77;51710;-75
2023/05/28 13:28:28;;;;;;;;;;;;;;;23.19;47.10;101286.29;2262384;77;52389;-76
2023/05/28 13:31:29;;;;;;;;;;;;;;;23.20;47.09;101285.80;2262757;77;50707;-77
2023/05/28 13:34:31;;;;;;;;;;;;;;;23.19;47.08;101276.84;2262588;77;50331;-76
2023/05/28 13:37:33;;;;;;;;;;;;;;;23.19;47.10;101276.84;2262481;77;50303;-77
2023/05/28 13:40:35;;;;;;;;;;;;;;;23.20;47.11;101274.48;2238009;77;51815;-77
2023/05/28 13:43:41;;;;;;;;;;;;;;;23.22;47.13;101262.11;2288658;77;51502;-76
2023/05/28 13:46:40;;;;;;;;;;;;;;;23.22;47.13;101254.01;2287626;76;22876;-76
2023/05/28 13:49:41;;;;;;;;;;;;;;;23.21;47.14;101253.18;2315147;76;51507;-77
2023/05/28 13:52:44;;;;;;;;;;;;;;;23.21;47.17;101246.44;2328958;76;51257;-77
2023/05/28 13:55:45;;;;;;;;;;;;;;;23.23;47.20;101250.30;2328593;76;51642;-76
2023/05/28 13:58:47;;;;;;;;;;;;;;;23.23;47.20;101241.67;2328502;76;50299;-76
2023/05/28 14:01:48;;;;;;;;;;;;;;;23.25;47.23;101243.66;2356235;74;50685;-77
2023/05/28 14:04:50;;;;;;;;;;;;;;;23.24;47.25;101244.67;2328816;75;52496;-76
2023/05/28 14:07:52;;;;;;;;;;;;;;;23.25;47.27;101244.19;2328526;76;51470;-76
2023/05/28 14:10:53;;;;;;;;;;;;;;;23.25;47.25;101242.84;2356226;74;52229;-77
2023/05/28 14:13:55;;;;;;;;;;;;;;;23.24;47.29;101240.63;2356200;74;51580;-78
2023/05/28 14:16:56;;;;;;;;;;;;;;;23.26;47.21;101235.04;2315325;74;51222;-77
2023/05/28 14:19:58;;;;;;;;;;;;;;;23.25;47.24;101239.61;2319142;74;51585;-77
2023/05/28 14:23:00;;;;;;;;;;;;;;;23.26;47.25;101239.09;2329159;75;50265;-78
2023/05/28 14:26:02;;;;;;;;;;;;;;;23.28;47.28;101234.85;2329018;76;50277;-78
2023/05/28 14:29:03;;;;;;;;;;;;;;;23.29;47.29;101227.05;2328031;74;51060;-77
2023/05/28 14:32:05;;;;;;;;;;;;;;;23.30;47.27;101235.45;2355994;74;50434;-78
2023/05/28 14:35:07;;;;;;;;;;;;;;;23.30;47.34;101221.95;2329036;76;50252;-79
2023/05/28 14:38:08;;;;;;;;;;;;;;;23.30;47.30;101221.95;2356267;74;50685;-77
2023/05/28 14:41:10;;;;;;;;;;;;;;;23.30;47.39;101221.95;2328654;76;51196;-76
2023/05/28 14:44:11;;;;;;;;;;;;;;;23.32;47.38;101219.90;2355840;74;51469;-77
2023/05/28 14:47:13;;;;;;;;;;;;;;;23.32;47.42;101213.15;2311403;76;50757;-78
2023/05/28 14:50:14;;;;;;;;;;;;;;;23.34;47.42;101217.84;2282271;76;50114;-77
2023/05/28 14:53:16;;;;;;;;;;;;;;;23.33;47.49;101218.36;2328906;75;52530;-78
2023/05/28 14:56:18;;;;;;;;;;;;;;;23.34;47.45;101215.14;2328671;75;50322;-78
2023/05/28 14:59:19;;;;;;;;;;;;;;;23.34;47.51;101209.21;2328887;74;51464;-77
2023/05/28 15:02:21;;;;;;;;;;;;;;;23.34;47.57;101206.52;2328777;74;50387;-78
2023/05/28 15:05:23;;;;;;;;;;;;;;;23.35;47.57;101208.69;2328593;76;52483;-77
2023/05/28 15:08:24;;;;;;;;;;;;;;;23.34;47.62;101198.94;2355691;74;51454;-77
2023/05/28 15:11:26;;;;;;;;;;;;;;;23.37;47.62;101197.17;2328867;75;50091;-77
2023/05/28 15:14:30;;;;;;;;;;;;;;;23.37;47.62;101204.75;2328824;76;50298;-77
2023/05/28 15:17:31;;;;;;;;;;;;;;;23.38;47.66;101206.44;2334730;74;23042;-78
2023/05/28 15:20:32;;;;;;;;;;;;;;;23.38;47.70;101205.09;2285606;74;51567;-76
2023/05/28 15:23:34;;;;;;;;;;;;;;;23.39;47.70;101207.27;2328820;76;51453;-77
2023/05/28 15:26:36;;;;;;;;;;;;;;;23.39;47.73;101204.56;2356006;74;50661;-78
2023/05/28 15:29:43;;;;;;;;;;;;;;;23.40;47.72;101207.08;2328683;76;51340;-76
2023/05/28 15:32:41;;;;;;;;;;;;;;;23.40;47.75;101204.87;2355029;74;22309;-76